createdAt,value
2022-10-30T00:01:02.282Z,7.15
2022-10-30T00:03:29.041Z,7.22
2022-10-30T00:05:56.178Z,9.10
2022-10-30T00:08:23.669Z,8.90
2022-10-30T00:10:50.405Z,9.25
2022-10-30T00:13:18.221Z,9.00
2022-10-30T00:15:53.578Z,7.75
2022-10-30T00:18:21.011Z,7.40
2022-10-30T00:20:48.476Z,7.57
2022-10-30T00:23:15.308Z,7.65
2022-10-30T00:25:42.033Z,7.38
2022-10-30T00:28:11.995Z,7.35
2022-10-30T00:30:39.065Z,7.10
2022-10-30T00:33:05.909Z,8.20
2022-10-30T00:35:32.684Z,9.25
2022-10-30T00:38:00.893Z,9.27
2022-10-30T00:40:28.500Z,8.60
2022-10-30T00:42:55.411Z,7.30
2022-10-30T00:45:22.233Z,5.75
2022-10-30T00:48:02.105Z,5.70
2022-10-30T00:50:34.774Z,6.30
2022-10-30T00:53:09.079Z,6.55
2022-10-30T00:55:39.923Z,6.20
2022-10-30T00:58:14.355Z,7.05
2022-10-30T01:03:09.561Z,6.70
2022-10-30T01:05:36.620Z,5.97
2022-10-30T01:08:03.456Z,6.85
2022-10-30T01:10:30.495Z,7.00
2022-10-30T01:12:59.610Z,5.85
2022-10-30T01:15:34.334Z,6.32
2022-10-30T01:18:32.502Z,6.85
2022-10-30T01:21:14.748Z,6.70
2022-10-30T01:24:21.772Z,6.90
2022-10-30T01:27:52.480Z,6.28
2022-10-30T01:30:27.474Z,6.60
2022-10-30T01:33:31.409Z,6.78
2022-10-30T01:36:26.496Z,6.68
2022-10-30T01:41:19.901Z,5.88
2022-10-30T01:43:50.901Z,4.97
2022-10-30T01:46:35.996Z,5.43
2022-10-30T01:49:11.804Z,4.70
2022-10-30T01:52:15.462Z,4.95
2022-10-30T01:55:04.586Z,5.13
2022-10-30T01:57:41.581Z,4.95
2022-10-30T02:00:11.304Z,5.65
2022-10-30T02:02:43.991Z,4.38
2022-10-30T02:05:20.368Z,4.93
2022-10-30T02:07:47.255Z,5.20
2022-10-30T02:10:13.923Z,5.32
2022-10-30T02:12:41.284Z,4.78
2022-10-30T02:15:09.193Z,4.30
2022-10-30T02:17:35.985Z,4.22
2022-10-30T02:20:02.689Z,4.15
2022-10-30T02:22:29.525Z,3.58
2022-10-30T02:25:03.921Z,4.32
2022-10-30T02:27:31.082Z,4.32
2022-10-30T02:29:57.938Z,4.50
2022-10-30T02:32:27.547Z,4.10
2022-10-30T02:34:54.191Z,4.43
2022-10-30T02:37:20.776Z,4.40
2022-10-30T02:39:47.484Z,4.38
2022-10-30T02:42:14.061Z,4.50
2022-10-30T02:44:40.631Z,3.92
2022-10-30T02:47:07.374Z,4.28
2022-10-30T02:49:34.018Z,4.13
2022-10-30T02:52:01.321Z,4.45
2022-10-30T02:54:28.015Z,4.43
2022-10-30T02:56:54.776Z,4.35
2022-10-30T02:59:21.437Z,4.03
2022-10-30T03:01:48.075Z,4.72
2022-10-30T03:04:14.912Z,5.30
2022-10-30T03:06:42.501Z,4.30
2022-10-30T03:09:12.319Z,4.22
2022-10-30T03:11:39.027Z,4.30
2022-10-30T03:14:05.720Z,4.03
2022-10-30T03:16:32.323Z,3.60
2022-10-30T03:18:59.421Z,3.58
2022-10-30T03:21:28.801Z,4.35
2022-10-30T03:23:55.676Z,4.30
2022-10-30T03:26:22.829Z,4.80
2022-10-30T03:28:49.517Z,3.47
2022-10-30T03:31:17.852Z,5.15
2022-10-30T03:33:45.442Z,4.97
2022-10-30T03:36:13.743Z,4.40
2022-10-30T03:38:40.553Z,5.30
2022-10-30T03:41:09.905Z,4.50
2022-10-30T03:43:36.491Z,5.28
2022-10-30T03:46:03.097Z,5.07
2022-10-30T03:48:30.262Z,4.22
2022-10-30T03:50:58.625Z,3.63
2022-10-30T03:53:26.038Z,3.30
2022-10-30T03:56:00.884Z,3.85
2022-10-30T03:58:29.208Z,3.28
2022-10-30T04:01:01.384Z,3.70
2022-10-30T04:03:28.196Z,3.40
2022-10-30T04:05:59.945Z,3.70
2022-10-30T04:08:26.676Z,3.58
2022-10-30T04:10:53.375Z,3.38
2022-10-30T04:13:20.113Z,3.75
2022-10-30T04:15:51.012Z,4.07
2022-10-30T04:18:22.712Z,3.97
2022-10-30T04:20:49.382Z,3.80
2022-10-30T04:23:18.863Z,3.80
2022-10-30T04:25:45.577Z,3.13
2022-10-30T04:28:15.628Z,3.88
2022-10-30T04:30:43.485Z,3.50
2022-10-30T04:33:14.514Z,3.70
2022-10-30T04:35:42.006Z,3.85
2022-10-30T04:38:11.230Z,3.72
2022-10-30T04:40:42.386Z,3.42
2022-10-30T04:43:10.216Z,4.00
2022-10-30T04:45:37.700Z,3.50
2022-10-30T04:48:07.199Z,3.45
2022-10-30T04:50:34.669Z,3.97
2022-10-30T04:53:11.146Z,3.55
2022-10-30T04:55:37.858Z,3.70
2022-10-30T04:58:04.750Z,3.83
2022-10-30T05:00:32.261Z,3.67
2022-10-30T05:03:00.536Z,3.42
2022-10-30T05:05:32.127Z,3.63
2022-10-30T05:07:59.069Z,3.65
2022-10-30T05:10:25.944Z,3.42
2022-10-30T05:12:53.428Z,3.20
2022-10-30T05:15:24.074Z,3.30
2022-10-30T05:17:53.723Z,4.22
2022-10-30T05:20:21.311Z,3.50
2022-10-30T05:22:56.702Z,3.13
2022-10-30T05:25:24.178Z,3.42
2022-10-30T05:27:51.496Z,3.45
2022-10-30T05:30:18.153Z,3.70
2022-10-30T05:32:45.099Z,3.67
2022-10-30T05:35:11.729Z,3.70
2022-10-30T05:37:38.574Z,3.63
2022-10-30T05:40:05.780Z,3.50
2022-10-30T05:42:33.387Z,3.70
2022-10-30T05:45:01.802Z,3.50
2022-10-30T05:47:35.877Z,3.60
2022-10-30T05:50:05.918Z,3.55
2022-10-30T05:52:37.075Z,3.13
2022-10-30T05:55:04.216Z,3.25
2022-10-30T05:57:31.662Z,3.60
2022-10-30T06:00:03.104Z,3.30
2022-10-30T06:02:29.795Z,2.53
2022-10-30T06:04:56.445Z,2.97
2022-10-30T06:07:23.677Z,3.17
2022-10-30T06:12:58.861Z,3.05
2022-10-30T06:15:35.245Z,2.97
2022-10-30T06:18:09.878Z,3.20
2022-10-30T06:20:36.686Z,3.40
2022-10-30T06:23:05.819Z,3.42
2022-10-30T06:25:40.594Z,2.95
2022-10-30T06:28:09.655Z,2.72
2022-10-30T06:30:36.264Z,3.20
2022-10-30T06:33:04.964Z,2.95
2022-10-30T06:35:31.662Z,3.03
2022-10-30T06:37:58.933Z,2.78
2022-10-30T06:40:26.479Z,2.90
2022-10-30T06:42:54.372Z,2.70
2022-10-30T06:45:22.974Z,2.90
2022-10-30T06:47:49.780Z,2.50
2022-10-30T06:50:19.150Z,2.53
2022-10-30T06:52:46.017Z,2.65
2022-10-30T06:55:12.580Z,2.83
2022-10-30T06:57:39.305Z,3.05
2022-10-30T07:00:07.980Z,2.85
2022-10-30T07:02:34.831Z,2.78
2022-10-30T07:05:01.598Z,2.97
2022-10-30T07:07:28.719Z,2.90
2022-10-30T07:09:55.242Z,2.80
2022-10-30T07:12:21.820Z,3.13
2022-10-30T07:14:48.367Z,3.15
2022-10-30T07:17:19.982Z,2.88
2022-10-30T07:19:46.659Z,3.00
2022-10-30T07:22:13.311Z,2.53
2022-10-30T07:24:39.865Z,3.22
2022-10-30T07:27:06.431Z,2.90
2022-10-30T07:29:33.003Z,3.28
2022-10-30T07:32:02.989Z,3.33
2022-10-30T07:34:30.394Z,2.83
2022-10-30T07:37:04.769Z,2.80
2022-10-30T07:39:31.270Z,2.70
2022-10-30T07:41:58.005Z,2.78
2022-10-30T07:44:26.471Z,2.88
2022-10-30T07:46:53.078Z,2.65
2022-10-30T07:49:25.429Z,2.53
2022-10-30T07:51:52.037Z,2.40
2022-10-30T07:54:18.631Z,2.72
2022-10-30T07:56:45.973Z,2.92
2022-10-30T07:59:12.592Z,2.28
2022-10-30T08:01:39.247Z,2.78
2022-10-30T08:04:05.952Z,2.92
2022-10-30T08:06:32.633Z,2.92
2022-10-30T08:08:59.351Z,2.72
2022-10-30T08:11:25.995Z,3.58
2022-10-30T08:13:52.598Z,4.55
2022-10-30T08:16:19.146Z,4.00
2022-10-30T08:18:45.748Z,4.40
2022-10-30T08:21:15.765Z,3.33
2022-10-30T08:23:42.376Z,3.97
2022-10-30T08:26:09.456Z,4.68
2022-10-30T08:28:36.098Z,4.47
2022-10-30T08:31:03.352Z,3.75
2022-10-30T08:33:30.002Z,3.35
2022-10-30T08:36:00.588Z,3.42
2022-10-30T08:38:27.966Z,3.17
2022-10-30T08:40:55.338Z,2.63
2022-10-30T08:43:22.028Z,3.20
2022-10-30T08:45:49.499Z,3.25
2022-10-30T08:48:16.691Z,3.35
2022-10-30T08:50:43.792Z,3.03
2022-10-30T08:53:12.727Z,3.30
2022-10-30T08:55:39.374Z,2.90
2022-10-30T08:58:06.144Z,3.30
2022-10-30T09:00:32.794Z,2.92
2022-10-30T09:02:59.741Z,3.20
2022-10-30T09:05:26.669Z,2.78
2022-10-30T09:08:00.109Z,2.85
2022-10-30T09:10:27.652Z,3.45
2022-10-30T09:12:55.721Z,2.70
2022-10-30T09:15:24.049Z,2.88
2022-10-30T09:18:04.641Z,3.20
2022-10-30T09:23:11.745Z,3.10
2022-10-30T09:25:38.432Z,3.65
2022-10-30T09:28:05.290Z,4.35
2022-10-30T09:30:32.159Z,3.67
2022-10-30T09:33:04.291Z,3.83
2022-10-30T09:35:31.498Z,3.80
2022-10-30T09:38:00.023Z,3.65
2022-10-30T09:40:58.439Z,3.40
2022-10-30T09:43:47.178Z,3.22
2022-10-30T09:46:55.703Z,3.42
2022-10-30T09:49:48.286Z,3.85
2022-10-30T09:52:50.613Z,3.78
2022-10-30T09:55:36.161Z,3.53
2022-10-30T09:58:33.456Z,4.03
2022-10-30T10:01:26.787Z,4.00
2022-10-30T10:04:13.905Z,4.45
2022-10-30T10:06:43.630Z,4.88
2022-10-30T10:09:17.685Z,4.45
2022-10-30T10:11:51.700Z,4.35
2022-10-30T10:14:26.914Z,3.92
2022-10-30T10:16:59.612Z,3.60
2022-10-30T10:19:38.624Z,3.58
2022-10-30T10:22:22.815Z,3.90
2022-10-30T10:27:47.659Z,4.63
2022-10-30T10:30:18.284Z,4.60
2022-10-30T10:33:09.638Z,4.20
2022-10-30T10:35:52.084Z,4.88
2022-10-30T10:38:26.220Z,4.30
2022-10-30T10:41:01.891Z,4.80
2022-10-30T10:43:31.242Z,4.15
2022-10-30T10:46:16.473Z,4.57
2022-10-30T10:48:57.677Z,4.10
2022-10-30T10:51:47.926Z,3.95
2022-10-30T10:54:23.805Z,4.20
2022-10-30T10:56:51.958Z,6.63
2022-10-30T10:59:31.603Z,6.18
2022-10-30T11:02:32.183Z,5.10
2022-10-30T11:05:14.098Z,7.85
2022-10-30T11:07:47.534Z,5.20
2022-10-30T11:12:46.457Z,4.80
2022-10-30T11:15:45.683Z,5.70
2022-10-30T11:18:17.427Z,6.20
2022-10-30T11:21:07.551Z,6.93
2022-10-30T11:23:41.477Z,5.95
2022-10-30T11:26:27.080Z,5.15
2022-10-30T11:28:56.802Z,5.05
2022-10-30T11:31:39.951Z,7.75
2022-10-30T11:34:32.000Z,8.27
2022-10-30T11:36:58.698Z,6.68
2022-10-30T11:39:28.727Z,6.78
2022-10-30T11:42:08.832Z,5.50
2022-10-30T11:44:41.650Z,6.88
2022-10-30T11:47:10.239Z,6.35
2022-10-30T11:49:45.065Z,6.40
2022-10-30T11:52:15.748Z,5.45
2022-10-30T11:54:49.876Z,6.32
2022-10-30T11:57:41.328Z,5.75
2022-10-30T12:00:30.900Z,6.82
2022-10-30T12:03:04.034Z,5.47
2022-10-30T12:05:35.612Z,6.60
2022-10-30T12:08:09.521Z,6.82
2022-10-30T12:10:45.233Z,6.68
2022-10-30T12:13:22.810Z,7.13
2022-10-30T12:16:15.125Z,5.95
2022-10-30T12:18:51.800Z,5.63
2022-10-30T12:21:21.325Z,6.10
2022-10-30T12:24:04.821Z,4.85
2022-10-30T12:29:12.862Z,6.32
2022-10-30T12:31:47.746Z,7.47
2022-10-30T12:34:45.764Z,7.88
2022-10-30T12:37:16.118Z,6.90
2022-10-30T12:39:53.815Z,7.57
2022-10-30T12:42:20.698Z,8.45
2022-10-30T12:44:53.148Z,9.32
2022-10-30T12:47:57.913Z,7.55
2022-10-30T12:50:44.291Z,6.20
2022-10-30T12:53:22.250Z,6.97
2022-10-30T12:55:54.336Z,5.65
2022-10-30T12:58:52.424Z,7.47
2022-10-30T13:01:41.513Z,7.53
2022-10-30T13:04:20.334Z,7.95
2022-10-30T13:07:01.258Z,7.28
2022-10-30T13:09:36.732Z,8.30
2022-10-30T13:12:10.177Z,7.05
2022-10-30T13:15:07.201Z,6.65
2022-10-30T13:17:35.223Z,7.93
2022-10-30T13:20:01.852Z,8.52
2022-10-30T13:22:44.196Z,7.00
2022-10-30T13:25:19.843Z,6.82
2022-10-30T13:27:52.874Z,7.63
2022-10-30T13:30:25.662Z,8.60
2022-10-30T13:33:11.293Z,8.65
2022-10-30T13:35:48.428Z,7.07
2022-10-30T13:38:36.218Z,7.60
2022-10-30T13:41:12.113Z,7.00
2022-10-30T13:43:56.660Z,8.55
2022-10-30T13:46:38.361Z,8.38
2022-10-30T13:49:45.799Z,8.30
2022-10-30T13:52:18.957Z,8.07
2022-10-30T13:57:27.276Z,7.07
2022-10-30T14:02:54.773Z,6.82
2022-10-30T14:05:39.796Z,6.35
2022-10-30T14:08:47.865Z,8.40
2022-10-30T14:11:19.565Z,6.97
2022-10-30T14:14:31.655Z,7.10
2022-10-30T14:17:09.103Z,6.05
2022-10-30T14:20:10.130Z,6.63
2022-10-30T14:22:40.654Z,5.32
2022-10-30T14:25:17.195Z,5.18
2022-10-30T14:27:57.268Z,7.22
2022-10-30T14:30:27.862Z,5.35
2022-10-30T14:32:58.020Z,6.10
2022-10-30T14:35:39.781Z,6.63
2022-10-30T14:38:09.403Z,6.53
2022-10-30T14:40:50.709Z,4.97
2022-10-30T14:43:34.869Z,6.50
2022-10-30T14:46:10.181Z,6.20
2022-10-30T14:49:01.439Z,6.13
2022-10-30T14:51:42.397Z,5.55
2022-10-30T14:54:38.548Z,4.72
2022-10-30T14:57:42.923Z,5.70
2022-10-30T15:00:24.926Z,4.93
2022-10-30T15:03:40.831Z,4.97
2022-10-30T15:06:28.722Z,4.22
2022-10-30T15:09:27.720Z,4.97
2022-10-30T15:12:05.433Z,4.63
2022-10-30T15:14:53.064Z,5.00
2022-10-30T15:17:37.168Z,3.90
2022-10-30T15:20:08.847Z,4.63
2022-10-30T15:22:36.196Z,4.20
2022-10-30T15:25:03.646Z,5.30
2022-10-30T15:27:32.441Z,5.28
2022-10-30T15:30:01.794Z,4.20
2022-10-30T15:32:28.363Z,5.10
2022-10-30T15:34:57.674Z,4.93
2022-10-30T15:37:28.998Z,3.83
2022-10-30T15:40:14.773Z,5.43
2022-10-30T15:42:42.955Z,6.47
2022-10-30T15:45:30.934Z,6.57
2022-10-30T15:48:04.910Z,5.95
2022-10-30T15:50:33.201Z,5.63
2022-10-30T15:53:00.838Z,5.25
2022-10-30T15:55:31.069Z,5.65
2022-10-30T15:58:04.038Z,6.63
2022-10-30T16:00:34.475Z,8.38
2022-10-30T16:03:03.898Z,7.00
2022-10-30T16:05:31.396Z,8.00
2022-10-30T16:07:59.971Z,7.57
2022-10-30T16:10:36.933Z,7.90
2022-10-30T16:13:03.945Z,8.07
2022-10-30T16:15:38.943Z,8.35
2022-10-30T16:18:14.810Z,7.68
2022-10-30T16:20:44.999Z,6.43
2022-10-30T16:23:13.257Z,5.63
2022-10-30T16:25:46.777Z,5.57
2022-10-30T16:28:37.610Z,6.40
2022-10-30T16:31:08.915Z,6.85
2022-10-30T16:33:38.956Z,6.53
2022-10-30T16:36:13.861Z,5.70
2022-10-30T16:38:41.276Z,6.50
2022-10-30T16:41:10.203Z,6.80
2022-10-30T16:43:36.966Z,7.45
2022-10-30T16:49:20.606Z,7.88
2022-10-30T16:51:56.468Z,7.20
2022-10-30T16:54:34.258Z,6.88
2022-10-30T16:57:03.770Z,7.30
2022-10-30T16:59:47.330Z,7.10
2022-10-30T17:02:36.085Z,6.67
2022-10-30T17:05:12.323Z,7.22
2022-10-30T17:07:39.295Z,7.88
2022-10-30T17:10:42.912Z,6.95
2022-10-30T17:13:28.599Z,7.30
2022-10-30T17:16:14.019Z,7.82
2022-10-30T17:18:40.832Z,8.30
2022-10-30T17:21:17.132Z,7.25
2022-10-30T17:23:54.768Z,7.18
2022-10-30T17:26:22.246Z,7.70
2022-10-30T17:28:49.737Z,7.10
2022-10-30T17:31:19.367Z,7.80
2022-10-30T17:33:47.260Z,8.20
2022-10-30T17:36:14.368Z,7.18
2022-10-30T17:38:41.048Z,7.10
2022-10-30T17:41:13.548Z,7.72
2022-10-30T17:43:51.944Z,8.15
2022-10-30T17:46:25.080Z,8.18
2022-10-30T17:48:51.626Z,7.47
2022-10-30T17:51:18.810Z,7.63
2022-10-30T17:53:48.026Z,8.27
2022-10-30T17:56:21.508Z,8.68
2022-10-30T17:58:48.146Z,10.27
2022-10-30T18:01:23.675Z,8.88
2022-10-30T18:03:51.659Z,9.25
2022-10-30T18:06:21.575Z,9.23
2022-10-30T18:08:50.829Z,8.63
2022-10-30T18:11:20.365Z,10.88
2022-10-30T18:13:47.832Z,10.00
2022-10-30T18:16:16.221Z,8.63
2022-10-30T18:18:43.190Z,9.25
2022-10-30T18:21:14.978Z,8.23
2022-10-30T18:23:57.449Z,7.70
2022-10-30T18:26:26.337Z,9.63
2022-10-30T18:28:53.636Z,9.25
2022-10-30T18:31:22.879Z,8.07
2022-10-30T18:33:49.923Z,8.82
2022-10-30T18:36:28.114Z,8.18
2022-10-30T18:38:57.714Z,8.63
2022-10-30T18:41:36.903Z,9.32
2022-10-30T18:44:04.843Z,8.55
2022-10-30T18:46:34.531Z,8.30
2022-10-30T18:49:01.510Z,9.60
2022-10-30T18:51:28.632Z,9.90
2022-10-30T18:53:56.100Z,9.45
2022-10-30T18:56:39.523Z,8.52
2022-10-30T18:59:11.933Z,8.38
2022-10-30T19:01:39.179Z,8.43
2022-10-30T19:04:10.085Z,8.52
2022-10-30T19:06:37.718Z,9.32
2022-10-30T19:09:13.875Z,7.70
2022-10-30T19:11:44.191Z,8.85
2022-10-30T19:14:16.950Z,9.10
2022-10-30T19:16:43.545Z,11.07
2022-10-30T19:19:10.195Z,9.98
2022-10-30T19:21:36.876Z,8.73
2022-10-30T19:24:12.479Z,8.95
2022-10-30T19:26:41.417Z,9.10
2022-10-30T19:29:08.226Z,9.20
2022-10-30T19:31:36.130Z,9.52
2022-10-30T19:34:08.239Z,9.60
2022-10-30T19:36:39.092Z,10.23
2022-10-30T19:39:13.759Z,9.77
2022-10-30T19:41:42.341Z,9.60
2022-10-30T19:44:16.191Z,8.95
2022-10-30T19:46:54.460Z,9.32
2022-10-30T19:49:34.373Z,8.85
2022-10-30T19:52:15.146Z,8.45
2022-10-30T19:54:47.685Z,8.38
2022-10-30T19:57:22.614Z,9.23
2022-10-30T19:59:50.731Z,7.13
2022-10-30T20:02:21.724Z,9.57
2022-10-30T20:05:05.880Z,9.73
2022-10-30T20:07:41.679Z,9.85
2022-10-30T20:10:36.596Z,10.18
2022-10-30T20:15:37.216Z,8.07
2022-10-30T20:18:16.811Z,9.65
2022-10-30T20:20:59.112Z,10.15
2022-10-30T20:23:30.144Z,10.85
2022-10-30T20:26:21.201Z,10.88
2022-10-30T20:28:48.168Z,10.05
2022-10-30T20:31:15.321Z,9.50
2022-10-30T20:33:42.749Z,9.43
2022-10-30T20:36:12.884Z,11.00
2022-10-30T20:38:39.649Z,11.10
2022-10-30T20:41:07.631Z,9.88
2022-10-30T20:43:38.952Z,8.82
2022-10-30T20:46:08.289Z,9.20
2022-10-30T20:48:36.251Z,10.27
2022-10-30T20:51:04.302Z,10.43
2022-10-30T20:53:33.186Z,11.45
2022-10-30T20:55:59.976Z,12.18
2022-10-30T20:58:26.769Z,12.23
2022-10-30T21:00:58.360Z,12.07
2022-10-30T21:03:27.995Z,12.05
2022-10-30T21:05:56.937Z,11.40
2022-10-30T21:08:23.933Z,9.85
2022-10-30T21:10:50.532Z,10.07
2022-10-30T21:13:19.706Z,7.97
2022-10-30T21:15:46.372Z,7.47
2022-10-30T21:18:16.165Z,8.60
2022-10-30T21:20:42.776Z,9.18
2022-10-30T21:23:09.750Z,9.13
2022-10-30T21:25:36.441Z,9.23
2022-10-30T21:28:06.099Z,9.63
2022-10-30T21:30:32.657Z,8.63
2022-10-30T21:32:59.586Z,9.85
2022-10-30T21:35:27.512Z,9.23
2022-10-30T21:37:55.270Z,9.07
2022-10-30T21:40:21.980Z,8.20
2022-10-30T21:42:48.949Z,10.10
2022-10-30T21:45:15.744Z,10.07
2022-10-30T21:47:43.514Z,10.00
2022-10-30T21:50:12.585Z,9.48
2022-10-30T21:52:40.853Z,9.50
2022-10-30T21:55:08.416Z,9.43
2022-10-30T21:57:37.510Z,9.40
2022-10-30T22:00:06.097Z,8.95
2022-10-30T22:02:34.359Z,9.18
2022-10-30T22:05:00.985Z,8.52
2022-10-30T22:07:27.690Z,7.32
2022-10-30T22:09:54.334Z,8.48
2022-10-30T22:12:22.211Z,7.13
2022-10-30T22:14:48.953Z,7.75
2022-10-30T22:17:15.479Z,7.05
2022-10-30T22:19:42.103Z,7.07
2022-10-30T22:22:08.727Z,7.20
2022-10-30T22:24:35.349Z,7.72
2022-10-30T22:27:02.032Z,6.88
2022-10-30T22:29:28.642Z,7.50
2022-10-30T22:31:55.383Z,6.30
2022-10-30T22:34:21.973Z,6.60
2022-10-30T22:36:48.719Z,5.53
2022-10-30T22:39:15.509Z,5.97
2022-10-30T22:41:42.061Z,5.68
2022-10-30T22:44:12.526Z,5.47
2022-10-30T22:46:39.810Z,5.40
2022-10-30T22:49:07.314Z,5.35
2022-10-30T22:51:36.609Z,4.85
2022-10-30T22:54:05.640Z,5.25
2022-10-30T22:56:34.422Z,4.28
2022-10-30T22:59:03.729Z,5.00
2022-10-30T23:01:32.375Z,4.85
2022-10-30T23:04:00.916Z,5.18
2022-10-30T23:06:29.113Z,5.50
2022-10-30T23:09:00.743Z,6.00
2022-10-30T23:11:31.274Z,5.43
2022-10-30T23:13:58.026Z,5.03
2022-10-30T23:16:26.123Z,5.47
2022-10-30T23:19:00.047Z,4.72
2022-10-30T23:21:29.717Z,5.20
2022-10-30T23:23:57.453Z,5.07
2022-10-30T23:26:30.037Z,4.82
2022-10-30T23:29:00.549Z,5.32
2022-10-30T23:31:32.919Z,4.50
2022-10-30T23:34:02.045Z,5.30
2022-10-30T23:36:28.762Z,4.55
2022-10-30T23:39:00.444Z,5.43
2022-10-30T23:41:29.505Z,4.80
2022-10-30T23:43:58.464Z,5.57
2022-10-30T23:46:25.718Z,5.60
2022-10-30T23:48:52.609Z,5.57
2022-10-30T23:51:19.721Z,4.90
2022-10-30T23:53:50.999Z,5.43
2022-10-30T23:56:18.400Z,5.85
2022-10-30T23:58:46.750Z,5.53
